Time,TemperatureF,DewpointF,PressureIn,WindDirection,WindDirectionDegrees,WindSpeedMPH,WindSpeedGustMPH,Humidity,HourlyPrecipIn,Conditions,Clouds,dailyrainin,SoftwareType,DateUTC
2013-11-13 00:00:00,29.0,20.4,30.43,NNW,327,2.0,2.0,70,0.00,,,0.04,Wunderground v.1.15,2013-11-13 05:00:00,
2013-11-13 00:05:00,28.8,19.6,30.43,North,354,1.0,2.0,68,0.00,,,0.00,Wunderground v.1.15,2013-11-13 05:05:00,
2013-11-13 00:10:00,28.8,19.2,30.43,East,81,1.0,1.0,67,0.00,,,0.00,Wunderground v.1.15,2013-11-13 05:10:00,
2013-11-13 00:15:00,28.8,19.6,30.42,NW,322,1.0,3.0,68,0.00,,,0.00,Wunderground v.1.15,2013-11-13 05:15:00,
2013-11-13 00:20:00,28.8,19.9,30.42,SSW,213,2.0,4.0,69,0.00,,,0.00,Wunderground v.1.15,2013-11-13 05:20:00,
2013-11-13 00:30:00,28.8,20.2,30.42,South,189,5.0,5.0,70,0.00,,,0.00,Wunderground v.1.15,2013-11-13 05:30:00,
2013-11-13 00:35:00,28.7,21.1,30.42,North,10,5.0,5.0,73,0.00,,,0.00,Wunderground v.1.15,2013-11-13 05:35:00,
2013-11-13 00:40:00,28.6,20.7,30.42,West,262,4.0,4.0,72,0.00,,,0.00,Wunderground v.1.15,2013-11-13 05:40:00,
2013-11-13 00:50:00,28.5,21.3,30.41,SSW,193,2.0,2.0,74,0.00,,,0.00,Wunderground v.1.15,2013-11-13 05:50:00,
2013-11-13 01:00:00,28.5,21.3,30.41,West,264,5.0,5.0,74,0.00,,,0.00,Wunderground v.1.15,2013-11-13 06:00:00,
2013-11-13 01:05:00,28.5,20.9,30.41,West,264,5.0,6.0,73,0.00,,,0.00,Wunderground v.1.15,2013-11-13 06:05:00,
2013-11-13 01:15:00,28.5,20.9,30.42,SSW,210,4.0,7.0,73,0.00,,,0.00,Wunderground v.1.15,2013-11-13 06:15:00,
2013-11-13 01:25:00,28.5,20.9,30.41,West,262,6.0,12.0,73,0.00,,,0.00,Wunderground v.1.15,2013-11-13 06:25:00,
2013-11-13 01:35:00,28.5,20.6,30.41,NNW,341,5.0,5.0,72,0.00,,,0.00,Wunderground v.1.15,2013-11-13 06:35:00,
2013-11-13 01:40:00,28.4,20.5,30.42,NE,35,3.0,3.0,72,0.00,,,0.00,Wunderground v.1.15,2013-11-13 06:40:00,
2013-11-13 01:45:00,28.4,20.5,30.42,West,260,4.0,7.0,72,0.00,,,0.00,Wunderground v.1.15,2013-11-13 06:45:00,
2013-11-13 01:55:00,28.4,20.2,30.41,WNW,295,4.0,10.0,71,0.00,,,0.00,Wunderground v.1.15,2013-11-13 06:55:00,
2013-11-13 02:00:00,28.3,20.4,30.41,West,281,4.0,4.0,72,0.00,,,0.00,Wunderground v.1.15,2013-11-13 07:00:00,
2013-11-13 02:05:00,28.2,20.7,30.42,NNE,23,4.0,4.0,73,0.00,,,0.00,Wunderground v.1.15,2013-11-13 07:05:00,
2013-11-13 02:15:00,28.2,20.3,30.41,North,354,3.0,6.0,72,0.00,,,0.00,Wunderground v.1.15,2013-11-13 07:15:00,
2013-11-13 02:20:00,28.2,20.3,30.41,North,354,5.0,5.0,72,0.00,,,0.00,Wunderground v.1.15,2013-11-13 07:20:00,
2013-11-13 02:30:00,28.2,20.0,30.41,West,263,5.0,14.0,71,0.00,,,0.00,Wunderground v.1.15,2013-11-13 07:30:00,
2013-11-13 02:40:00,28.1,19.9,30.42,WNW,283,6.0,18.0,71,0.00,,,0.00,Wunderground v.1.15,2013-11-13 07:40:00,
2013-11-13 02:50:00,28.1,19.9,30.41,SW,218,7.0,7.0,71,0.00,,,0.00,Wunderground v.1.15,2013-11-13 07:50:00,
2013-11-13 03:00:00,27.9,20.0,30.42,WNW,294,6.0,6.0,72,0.00,,,0.00,Wunderground v.1.15,2013-11-13 08:00:00,
2013-11-13 03:05:00,27.8,19.9,30.42,WNW,290,5.0,6.0,72,0.00,,,0.00,Wunderground v.1.15,2013-11-13 08:05:00,
2013-11-13 03:15:00,27.7,19.8,30.42,SW,231,5.0,5.0,72,0.00,,,0.00,Wunderground v.1.15,2013-11-13 08:15:00,
2013-11-13 03:25:00,27.6,19.8,30.42,WSW,255,5.0,7.0,72,0.00,,,0.00,Wunderground v.1.15,2013-11-13 08:25:00,
2013-11-13 03:35:00,27.5,19.3,30.42,SW,216,4.0,5.0,71,0.00,,,0.00,Wunderground v.1.15,2013-11-13 08:35:00,
2013-11-13 03:45:00,27.5,19.7,30.42,WSW,238,3.0,10.0,72,0.00,,,0.00,Wunderground v.1.15,2013-11-13 08:45:00,
2013-11-13 03:55:00,27.5,19.7,30.42,West,280,6.0,6.0,72,0.00,,,0.00,Wunderground v.1.15,2013-11-13 08:55:00,
2013-11-13 04:10:00,27.5,20.3,30.42,East,81,2.0,5.0,74,0.00,,,0.00,Wunderground v.1.15,2013-11-13 09:10:00,
2013-11-13 04:20:00,27.4,20.5,30.43,ENE,73,5.0,5.0,75,0.00,,,0.00,Wunderground v.1.15,2013-11-13 09:20:00,
2013-11-13 04:30:00,27.3,20.4,30.43,SSE,147,3.0,3.0,75,0.00,,,0.00,Wunderground v.1.15,2013-11-13 09:30:00,
2013-11-13 04:40:00,27.4,20.5,30.43,SSE,158,3.0,3.0,75,0.00,,,0.00,Wunderground v.1.15,2013-11-13 09:40:00,
2013-11-13 04:50:00,27.5,20.3,30.44,South,170,2.0,2.0,74,0.00,,,0.00,Wunderground v.1.15,2013-11-13 09:50:00,
2013-11-13 05:00:00,27.6,20.1,30.44,West,272,2.0,4.0,73,0.00,,,0.00,Wunderground v.1.15,2013-11-13 10:00:00,
2013-11-13 05:05:00,27.7,19.8,30.44,East,97,4.0,4.0,72,0.00,,,0.00,Wunderground v.1.15,2013-11-13 10:05:00,
2013-11-13 05:15:00,27.7,20.2,30.45,SW,218,2.0,5.0,73,0.00,,,0.00,Wunderground v.1.15,2013-11-13 10:15:00,
2013-11-13 05:25:00,27.4,19.6,30.45,West,261,3.0,3.0,72,0.00,,,0.00,Wunderground v.1.15,2013-11-13 10:25:00,
2013-11-13 05:35:00,27.2,19.4,30.45,SE,125,4.0,6.0,72,0.00,,,0.00,Wunderground v.1.15,2013-11-13 10:35:00,
2013-11-13 05:45:00,27.0,19.2,30.46,East,84,2.0,3.0,72,0.00,,,0.00,Wunderground v.1.15,2013-11-13 10:45:00,
2013-11-13 05:55:00,26.8,19.0,30.46,East,79,2.0,3.0,72,0.00,,,0.00,Wunderground v.1.15,2013-11-13 10:55:00,
2013-11-13 06:05:00,26.7,18.9,30.46,West,264,2.0,6.0,72,0.00,,,0.00,Wunderground v.1.15,2013-11-13 11:05:00,
2013-11-13 06:15:00,26.6,19.1,30.47,ENE,57,1.0,2.0,73,0.00,,,0.00,Wunderground v.1.15,2013-11-13 11:15:00,
2013-11-13 06:25:00,26.6,18.8,30.47,ENE,73,3.0,3.0,72,0.00,,,0.00,Wunderground v.1.15,2013-11-13 11:25:00,
2013-11-13 06:35:00,26.5,18.7,30.48,SW,214,1.0,3.0,72,0.00,,,0.00,Wunderground v.1.15,2013-11-13 11:35:00,
2013-11-13 06:45:00,26.4,18.9,30.48,ESE,114,2.0,2.0,73,0.00,,,0.00,Wunderground v.1.15,2013-11-13 11:45:00,
2013-11-13 06:50:00,26.3,18.8,30.48,East,89,1.0,5.0,73,0.00,,,0.00,Wunderground v.1.15,2013-11-13 11:50:00,
2013-11-13 07:00:00,26.2,18.4,30.48,North,349,2.0,2.0,72,0.00,,,0.00,Wunderground v.1.15,2013-11-13 12:00:00,
2013-11-13 07:05:00,26.1,18.6,30.48,North,354,1.0,2.0,73,0.00,,,0.00,Wunderground v.1.15,2013-11-13 12:05:00,
2013-11-13 07:15:00,26.1,18.9,30.49,SE,127,1.0,1.0,74,0.00,,,0.00,Wunderground v.1.15,2013-11-13 12:15:00,
2013-11-13 07:20:00,26.2,18.7,30.49,West,276,2.0,2.0,73,0.00,,,0.00,Wunderground v.1.15,2013-11-13 12:20:00,
2013-11-13 07:30:00,26.7,18.9,30.49,WSW,242,3.0,4.0,72,0.00,,,0.00,Wunderground v.1.15,2013-11-13 12:30:00,
2013-11-13 07:40:00,26.9,19.4,30.49,South,189,3.0,3.0,73,0.00,,,0.00,Wunderground v.1.15,2013-11-13 12:40:00,
2013-11-13 07:45:00,27.0,19.2,30.49,East,89,2.0,3.0,72,0.00,,,0.00,Wunderground v.1.15,2013-11-13 12:45:00,
2013-11-13 07:55:00,27.2,19.0,30.49,NW,326,4.0,5.0,71,0.00,,,0.00,Wunderground v.1.15,2013-11-13 12:55:00,
2013-11-13 08:05:00,27.4,19.6,30.49,WNW,301,2.0,6.0,72,0.00,,,0.00,Wunderground v.1.15,2013-11-13 13:05:00,
2013-11-13 08:15:00,27.6,19.8,30.50,NE,52,2.0,3.0,72,0.00,,,0.00,Wunderground v.1.15,2013-11-13 13:15:00,
2013-11-13 08:25:00,27.6,19.1,30.50,South,191,2.0,3.0,70,0.00,,,0.00,Wunderground v.1.15,2013-11-13 13:25:00,
2013-11-13 08:35:00,28.1,19.9,30.50,SSW,199,2.0,5.0,71,0.00,,,0.00,Wunderground v.1.15,2013-11-13 13:35:00,
2013-11-13 08:45:00,28.9,20.0,30.50,SSW,199,3.0,5.0,69,0.00,,,0.00,Wunderground v.1.15,2013-11-13 13:45:00,
2013-11-13 08:55:00,29.0,19.8,30.50,East,96,5.0,5.0,68,0.00,,,0.00,Wunderground v.1.15,2013-11-13 13:55:00,
2013-11-13 09:05:00,29.5,19.9,30.50,NNE,21,4.0,6.0,67,0.00,,,0.00,Wunderground v.1.15,2013-11-13 14:05:00,
2013-11-13 09:15:00,30.3,19.9,30.50,WSW,243,4.0,15.0,65,0.00,,,0.00,Wunderground v.1.15,2013-11-13 14:15:00,
2013-11-13 09:25:00,31.5,21.4,30.50,SSW,204,4.0,6.0,66,0.00,,,0.00,Wunderground v.1.15,2013-11-13 14:25:00,
2013-11-13 09:30:00,31.9,20.3,30.50,NNW,339,4.0,5.0,62,0.00,,,0.00,Wunderground v.1.15,2013-11-13 14:30:00,
2013-11-13 09:40:00,32.4,20.0,30.50,North,4,4.0,4.0,60,0.00,,,0.00,Wunderground v.1.15,2013-11-13 14:40:00,
2013-11-13 09:50:00,32.8,20.0,30.50,SW,223,5.0,9.0,59,0.00,,,0.00,Wunderground v.1.15,2013-11-13 14:50:00,
2013-11-13 10:00:00,32.9,20.9,30.50,SW,217,5.0,5.0,61,0.00,,,0.00,Wunderground v.1.15,2013-11-13 15:00:00,
2013-11-13 10:05:00,33.1,20.3,30.50,WSW,258,5.0,5.0,59,0.00,,,0.00,Wunderground v.1.15,2013-11-13 15:05:00,
2013-11-13 10:15:00,34.7,21.8,30.50,SE,129,2.0,4.0,59,0.00,,,0.00,Wunderground v.1.15,2013-11-13 15:15:00,
2013-11-13 10:25:00,34.3,21.0,30.50,South,177,3.0,3.0,58,0.00,,,0.00,Wunderground v.1.15,2013-11-13 15:25:00,
2013-11-13 10:35:00,34.8,20.7,30.50,West,263,5.0,7.0,56,0.00,,,0.00,Wunderground v.1.15,2013-11-13 15:35:00,
2013-11-13 10:45:00,34.5,20.4,30.50,South,189,5.0,6.0,56,0.00,,,0.00,Wunderground v.1.15,2013-11-13 15:45:00,
2013-11-13 10:55:00,33.9,19.0,30.50,WSW,252,4.0,10.0,54,0.00,,,0.00,Wunderground v.1.15,2013-11-13 15:55:00,
2013-11-13 11:05:00,34.3,18.9,30.50,NNW,342,5.0,15.0,53,0.00,,,0.00,Wunderground v.1.15,2013-11-13 16:05:00,
2013-11-13 11:15:00,34.1,19.2,30.50,SW,219,5.0,5.0,54,0.00,,,0.00,Wunderground v.1.15,2013-11-13 16:15:00,
2013-11-13 11:25:00,35.2,19.8,30.49,SSW,203,3.0,3.0,53,0.00,,,0.00,Wunderground v.1.15,2013-11-13 16:25:00,
2013-11-13 11:35:00,35.0,18.7,30.49,WSW,247,7.0,10.0,51,0.00,,,0.00,Wunderground v.1.15,2013-11-13 16:35:00,
2013-11-13 11:45:00,35.7,20.2,30.49,WSW,245,6.0,7.0,53,0.00,,,0.00,Wunderground v.1.15,2013-11-13 16:45:00,
2013-11-13 11:55:00,36.8,20.8,30.48,NW,312,4.0,5.0,52,0.00,,,0.00,Wunderground v.1.15,2013-11-13 16:55:00,
2013-11-13 12:05:00,37.2,20.7,30.48,ESE,116,5.0,6.0,51,0.00,,,0.00,Wunderground v.1.15,2013-11-13 17:05:00,
2013-11-13 12:15:00,38.2,20.7,30.47,SE,133,5.0,6.0,49,0.00,,,0.00,Wunderground v.1.15,2013-11-13 17:15:00,
2013-11-13 12:25:00,39.3,21.7,30.46,SE,137,3.0,4.0,49,0.00,,,0.00,Wunderground v.1.15,2013-11-13 17:25:00,
2013-11-13 12:35:00,38.9,20.9,30.46,West,268,5.0,7.0,48,0.00,,,0.00,Wunderground v.1.15,2013-11-13 17:35:00,
2013-11-13 12:45:00,39.0,19.9,30.45,SW,222,5.0,8.0,46,0.00,,,0.00,Wunderground v.1.15,2013-11-13 17:45:00,
2013-11-13 12:55:00,39.2,20.6,30.46,SW,226,5.0,5.0,47,0.00,,,0.00,Wunderground v.1.15,2013-11-13 17:55:00,
2013-11-13 13:05:00,39.4,20.3,30.45,SW,234,4.0,6.0,46,0.00,,,0.00,Wunderground v.1.15,2013-11-13 18:05:00,
2013-11-13 13:15:00,39.7,21.1,30.45,SW,220,4.0,8.0,47,0.00,,,0.00,Wunderground v.1.15,2013-11-13 18:15:00,
2013-11-13 13:25:00,38.6,20.6,30.45,SW,222,7.0,9.0,48,0.00,,,0.00,Wunderground v.1.15,2013-11-13 18:25:00,
2013-11-13 13:35:00,39.0,20.5,30.45,SSW,195,4.0,6.0,47,0.00,,,0.00,Wunderground v.1.15,2013-11-13 18:35:00,
2013-11-13 13:40:00,39.0,20.9,30.45,West,266,3.0,13.0,48,0.00,,,0.00,Wunderground v.1.15,2013-11-13 18:40:00,
2013-11-13 13:50:00,38.6,20.6,30.45,SE,128,6.0,6.0,48,0.00,,,0.00,Wunderground v.1.15,2013-11-13 18:50:00,
2013-11-13 14:00:00,39.7,21.6,30.44,WSW,256,3.0,14.0,48,0.00,,,0.00,Wunderground v.1.15,2013-11-13 19:00:00,
2013-11-13 14:05:00,39.2,22.1,30.44,SSW,208,4.0,14.0,50,0.00,,,0.00,Wunderground v.1.15,2013-11-13 19:05:00,
2013-11-13 14:15:00,38.7,20.7,30.44,WSW,241,7.0,7.0,48,0.00,,,0.00,Wunderground v.1.15,2013-11-13 19:15:00,
2013-11-13 14:25:00,38.8,21.7,30.44,SW,231,6.0,7.0,50,0.00,,,0.00,Wunderground v.1.15,2013-11-13 19:25:00,
2013-11-13 14:35:00,38.8,21.7,30.44,WSW,254,6.0,9.0,50,0.00,,,0.00,Wunderground v.1.15,2013-11-13 19:35:00,
2013-11-13 14:45:00,38.6,21.5,30.44,SW,218,7.0,8.0,50,0.00,,,0.00,Wunderground v.1.15,2013-11-13 19:45:00,
2013-11-13 14:55:00,37.8,21.3,30.44,WSW,241,6.0,7.0,51,0.00,,,0.00,Wunderground v.1.15,2013-11-13 19:55:00,
2013-11-13 15:05:00,39.1,22.0,30.44,SW,231,4.0,5.0,50,0.00,,,0.00,Wunderground v.1.15,2013-11-13 20:05:00,
2013-11-13 15:15:00,39.3,22.2,30.44,SW,232,5.0,14.0,50,0.00,,,0.00,Wunderground v.1.15,2013-11-13 20:15:00,
2013-11-13 15:25:00,38.6,21.5,30.44,South,191,7.0,7.0,50,0.00,,,0.00,Wunderground v.1.15,2013-11-13 20:25:00,
2013-11-13 15:35:00,37.8,21.7,30.44,SSW,199,5.0,7.0,52,0.00,,,0.00,Wunderground v.1.15,2013-11-13 20:35:00,
2013-11-13 15:45:00,36.6,21.1,30.43,West,273,9.0,9.0,53,0.00,,,0.00,Wunderground v.1.15,2013-11-13 20:45:00,
2013-11-13 15:50:00,36.5,21.0,30.43,WNW,303,7.0,7.0,53,0.00,,,0.00,Wunderground v.1.15,2013-11-13 20:50:00,
2013-11-13 16:00:00,35.8,21.2,30.43,WSW,237,6.0,6.0,55,0.00,,,0.00,Wunderground v.1.15,2013-11-13 21:00:00,
2013-11-13 16:05:00,35.4,20.8,30.44,NW,322,6.0,6.0,55,0.00,,,0.00,Wunderground v.1.15,2013-11-13 21:05:00,
2013-11-13 16:15:00,34.3,20.6,30.44,West,274,5.0,7.0,57,0.00,,,0.00,Wunderground v.1.15,2013-11-13 21:15:00,
2013-11-13 16:25:00,33.3,20.5,30.44,SSE,166,3.0,7.0,59,0.00,,,0.00,Wunderground v.1.15,2013-11-13 21:25:00,
2013-11-13 16:35:00,32.9,20.1,30.44,NE,43,3.0,4.0,59,0.00,,,0.00,Wunderground v.1.15,2013-11-13 21:35:00,
2013-11-13 16:45:00,32.6,20.2,30.44,WNW,299,4.0,5.0,60,0.00,,,0.00,Wunderground v.1.15,2013-11-13 21:45:00,
2013-11-13 16:50:00,32.3,20.3,30.45,SSW,211,4.0,6.0,61,0.00,,,0.00,Wunderground v.1.15,2013-11-13 21:50:00,
2013-11-13 17:00:00,31.9,20.3,30.44,South,180,2.0,5.0,62,0.00,,,0.00,Wunderground v.1.15,2013-11-13 22:00:00,
2013-11-13 17:05:00,31.6,20.4,30.45,NW,324,3.0,5.0,63,0.00,,,0.00,Wunderground v.1.15,2013-11-13 22:05:00,
2013-11-13 17:15:00,31.5,20.3,30.44,East,97,3.0,4.0,63,0.00,,,0.00,Wunderground v.1.15,2013-11-13 22:15:00,
2013-11-13 17:25:00,31.3,20.5,30.44,South,181,1.0,2.0,64,0.00,,,0.00,Wunderground v.1.15,2013-11-13 22:25:00,
2013-11-13 17:30:00,31.1,20.7,30.45,SSW,201,1.0,7.0,65,0.00,,,0.00,Wunderground v.1.15,2013-11-13 22:30:00,
2013-11-13 17:40:00,30.9,20.5,30.44,South,188,3.0,4.0,65,0.00,,,0.00,Wunderground v.1.15,2013-11-13 22:40:00,
2013-11-13 17:50:00,30.7,20.7,30.44,WSW,255,2.0,4.0,66,0.00,,,0.00,Wunderground v.1.15,2013-11-13 22:50:00,
2013-11-13 18:00:00,30.5,20.8,30.44,ENE,60,2.0,2.0,67,0.00,,,0.00,Wunderground v.1.15,2013-11-13 23:00:00,
2013-11-13 18:05:00,30.5,20.8,30.44,WSW,249,1.0,2.0,67,0.00,,,0.00,Wunderground v.1.15,2013-11-13 23:05:00,
2013-11-13 18:15:00,30.4,20.7,30.44,SW,228,2.0,2.0,67,0.00,,,0.00,Wunderground v.1.15,2013-11-13 23:15:00,
2013-11-13 18:25:00,30.2,20.9,30.44,WSW,245,2.0,5.0,68,0.00,,,0.00,Wunderground v.1.15,2013-11-13 23:25:00,
2013-11-13 18:35:00,30.1,21.2,30.44,WSW,237,2.0,2.0,69,0.00,,,0.00,Wunderground v.1.15,2013-11-13 23:35:00,
2013-11-13 18:45:00,30.1,21.2,30.44,NW,324,3.0,3.0,69,0.00,,,0.00,Wunderground v.1.15,2013-11-13 23:45:00,
2013-11-13 18:55:00,30.3,21.0,30.44,SW,227,4.0,10.0,68,0.00,,,0.00,Wunderground v.1.15,2013-11-13 23:55:00,
2013-11-13 19:05:00,30.3,21.0,30.44,WNW,287,3.0,4.0,68,0.00,,,0.00,Wunderground v.1.15,2013-11-14 00:05:00,
2013-11-13 19:15:00,30.4,21.1,30.43,SSW,204,5.0,8.0,68,0.00,,,0.00,Wunderground v.1.15,2013-11-14 00:15:00,
2013-11-13 19:20:00,30.5,21.2,30.43,WSW,245,6.0,9.0,68,0.00,,,0.00,Wunderground v.1.15,2013-11-14 00:20:00,
2013-11-13 19:30:00,30.5,21.2,30.43,SSW,193,5.0,5.0,68,0.00,,,0.00,Wunderground v.1.15,2013-11-14 00:30:00,
2013-11-13 19:40:00,30.4,21.1,30.42,West,259,4.0,8.0,68,0.00,,,0.00,Wunderground v.1.15,2013-11-14 00:40:00,
2013-11-13 19:45:00,30.3,21.0,30.42,SW,225,4.0,8.0,68,0.00,,,0.00,Wunderground v.1.15,2013-11-14 00:45:00,
2013-11-13 19:55:00,30.2,21.2,30.42,South,185,4.0,7.0,69,0.00,,,0.00,Wunderground v.1.15,2013-11-14 00:55:00,
2013-11-13 20:05:00,30.3,21.0,30.43,SW,220,5.0,5.0,68,0.00,,,0.00,Wunderground v.1.15,2013-11-14 01:05:00,
2013-11-13 20:15:00,30.5,21.2,30.42,SW,234,5.0,7.0,68,0.00,,,0.00,Wunderground v.1.15,2013-11-14 01:15:00,
2013-11-13 20:25:00,30.4,21.4,30.42,South,188,5.0,11.0,69,0.00,,,0.00,Wunderground v.1.15,2013-11-14 01:25:00,
2013-11-13 20:35:00,30.2,20.9,30.42,WNW,291,3.0,4.0,68,0.00,,,0.00,Wunderground v.1.15,2013-11-14 01:35:00,
2013-11-13 20:45:00,30.0,21.1,30.43,WSW,239,2.0,2.0,69,0.00,,,0.00,Wunderground v.1.15,2013-11-14 01:45:00,
2013-11-13 20:55:00,30.2,21.2,30.42,West,266,3.0,6.0,69,0.00,,,0.00,Wunderground v.1.15,2013-11-14 01:55:00,
2013-11-13 21:00:00,30.2,20.9,30.43,West,266,2.0,2.0,68,0.00,,,0.00,Wunderground v.1.15,2013-11-14 02:00:00,
2013-11-13 21:05:00,30.1,20.8,30.42,SW,218,1.0,5.0,68,0.00,,,0.00,Wunderground v.1.15,2013-11-14 02:05:00,
2013-11-13 21:15:00,30.0,21.1,30.42,WNW,295,1.0,4.0,69,0.00,,,0.00,Wunderground v.1.15,2013-11-14 02:15:00,
2013-11-13 21:25:00,29.9,20.6,30.42,ESE,112,1.0,1.0,68,0.00,,,0.00,Wunderground v.1.15,2013-11-14 02:25:00,
2013-11-13 21:35:00,29.8,20.9,30.42,SW,233,2.0,3.0,69,0.00,,,0.00,Wunderground v.1.15,2013-11-14 02:35:00,
2013-11-13 21:45:00,30.2,21.2,30.42,SW,216,5.0,5.0,69,0.00,,,0.00,Wunderground v.1.15,2013-11-14 02:45:00,
2013-11-13 21:50:00,30.3,21.3,30.42,South,181,5.0,6.0,69,0.00,,,0.00,Wunderground v.1.15,2013-11-14 02:50:00,
2013-11-13 22:00:00,30.3,21.0,30.41,SSW,212,5.0,5.0,68,0.00,,,0.00,Wunderground v.1.15,2013-11-14 03:00:00,
2013-11-13 22:05:00,30.3,21.3,30.41,SW,232,5.0,5.0,69,0.00,,,0.00,Wunderground v.1.15,2013-11-14 03:05:00,
2013-11-13 22:15:00,30.4,21.4,30.41,WNW,296,5.0,5.0,69,0.00,,,0.00,Wunderground v.1.15,2013-11-14 03:15:00,
2013-11-13 22:25:00,30.2,20.9,30.40,SSW,195,3.0,4.0,68,0.00,,,0.00,Wunderground v.1.15,2013-11-14 03:25:00,
2013-11-13 22:30:00,30.3,21.0,30.40,SSW,213,4.0,10.0,68,0.00,,,0.00,Wunderground v.1.15,2013-11-14 03:30:00,
2013-11-13 22:40:00,30.4,21.1,30.40,SSW,192,3.0,4.0,68,0.00,,,0.00,Wunderground v.1.15,2013-11-14 03:40:00,
2013-11-13 22:50:00,30.3,20.6,30.39,NNE,32,1.0,2.0,67,0.00,,,0.00,Wunderground v.1.15,2013-11-14 03:50:00,
2013-11-13 23:00:00,30.2,20.6,30.39,SSE,152,1.0,1.0,67,0.00,,,0.00,Wunderground v.1.15,2013-11-14 04:00:00,
2013-11-13 23:05:00,30.1,20.5,30.38,SW,216,1.0,3.0,67,0.00,,,0.00,Wunderground v.1.15,2013-11-14 04:05:00,
2013-11-13 23:15:00,30.1,20.5,30.38,SSW,207,3.0,3.0,67,0.00,,,0.00,Wunderground v.1.15,2013-11-14 04:15:00,
2013-11-13 23:20:00,30.2,20.6,30.38,WSW,252,2.0,4.0,67,0.00,,,0.00,Wunderground v.1.15,2013-11-14 04:20:00,
2013-11-13 23:30:00,30.3,20.6,30.37,SW,214,3.0,3.0,67,0.00,,,0.00,Wunderground v.1.15,2013-11-14 04:30:00,
2013-11-13 23:40:00,30.3,20.3,30.37,WSW,242,3.0,4.0,66,0.00,,,0.00,Wunderground v.1.15,2013-11-14 04:40:00,
2013-11-13 23:45:00,30.3,20.3,30.37,SSW,212,3.0,5.0,66,0.00,,,0.00,Wunderground v.1.15,2013-11-14 04:45:00,
2013-11-13 23:50:00,30.4,20.4,30.37,SW,229,3.0,4.0,66,0.00,,,0.00,Wunderground v.1.15,2013-11-14 04:50:00,